createdAt,value
2024-01-09T00:00:29.704Z,89.64
2024-01-09T00:01:29.659Z,89.71
2024-01-09T00:02:29.673Z,89.43
2024-01-09T00:03:29.692Z,90.17
2024-01-09T00:04:29.627Z,89.86
2024-01-09T00:05:29.697Z,89.96
2024-01-09T00:06:29.708Z,89.43
2024-01-09T00:07:29.653Z,89.01
2024-01-09T00:08:29.628Z,89.32
2024-01-09T00:09:29.590Z,89.32
2024-01-09T00:10:29.564Z,89.26
2024-01-09T00:11:29.593Z,89.32
2024-01-09T00:12:29.550Z,88.59
2024-01-09T00:13:29.527Z,89.32
2024-01-09T00:14:29.594Z,88.69
2024-01-09T00:15:29.525Z,89.01
2024-01-09T00:16:29.545Z,89.64
2024-01-09T00:17:29.560Z,89.22
2024-01-09T00:18:29.515Z,88.59
2024-01-09T00:19:31.179Z,88.69
2024-01-09T00:20:29.512Z,89.50
2024-01-09T00:21:29.480Z,88.69
2024-01-09T00:22:29.467Z,87.53
2024-01-09T00:23:29.464Z,87.21
2024-01-09T00:24:29.404Z,87.42
2024-01-09T00:25:29.389Z,87.00
2024-01-09T00:26:29.440Z,86.05
2024-01-09T00:27:29.437Z,86.47
2024-01-09T00:28:29.405Z,86.30
2024-01-09T00:29:29.403Z,85.35
2024-01-09T00:30:29.392Z,85.21
2024-01-09T00:31:29.350Z,85.56
2024-01-09T00:32:29.498Z,86.16
2024-01-09T00:33:29.571Z,85.98
2024-01-09T00:34:29.391Z,84.78
2024-01-09T00:35:29.337Z,85.52
2024-01-09T00:36:29.316Z,85.46
2024-01-09T00:37:29.264Z,85.66
2024-01-09T00:38:29.281Z,86.09
2024-01-09T00:39:29.253Z,85.10
2024-01-09T00:40:29.226Z,85.35
2024-01-09T00:41:29.272Z,86.61
2024-01-09T00:42:29.229Z,87.15
2024-01-09T00:43:29.232Z,86.72
2024-01-09T00:44:29.240Z,86.51
2024-01-09T00:45:29.180Z,86.61
2024-01-09T00:46:29.222Z,86.30
2024-01-09T00:47:29.290Z,85.66
2024-01-09T00:48:29.410Z,85.24
2024-01-09T00:49:29.191Z,85.35
2024-01-09T00:50:29.209Z,85.35
2024-01-09T00:51:29.106Z,87.29
2024-01-09T00:52:29.095Z,86.34
2024-01-09T00:53:29.153Z,86.13
2024-01-09T00:54:29.107Z,86.02
2024-01-09T00:55:29.094Z,86.76
2024-01-09T00:56:29.158Z,86.66
2024-01-09T00:57:29.045Z,86.55
2024-01-09T00:58:29.059Z,86.76
2024-01-09T00:59:29.063Z,86.38
2024-01-09T01:00:29.041Z,87.08
2024-01-09T01:01:29.039Z,86.66
2024-01-09T01:02:29.001Z,87.08
2024-01-09T01:03:29.046Z,86.13
2024-01-09T01:04:29.029Z,86.23
2024-01-09T01:05:29.083Z,85.39
2024-01-09T01:06:28.955Z,85.28
2024-01-09T01:07:28.950Z,85.28
2024-01-09T01:08:28.941Z,85.91
2024-01-09T01:09:28.910Z,84.96
2024-01-09T01:10:28.939Z,85.28
2024-01-09T01:11:28.957Z,86.34
2024-01-09T01:12:28.894Z,86.13
2024-01-09T01:13:28.893Z,86.55
2024-01-09T01:14:28.880Z,85.49
2024-01-09T01:15:28.865Z,85.39
2024-01-09T01:16:28.838Z,86.02
2024-01-09T01:17:28.897Z,85.85
2024-01-09T01:18:28.877Z,84.89
2024-01-09T01:19:28.856Z,84.89
2024-01-09T01:20:28.857Z,84.22
2024-01-09T01:21:28.804Z,83.48
2024-01-09T01:22:28.792Z,83.84
2024-01-09T01:23:28.829Z,84.89
2024-01-09T01:24:28.767Z,84.96
2024-01-09T01:25:28.757Z,83.62
2024-01-09T01:26:28.737Z,83.84
2024-01-09T01:27:28.741Z,83.41
2024-01-09T01:28:28.704Z,83.20
2024-01-09T01:29:28.813Z,82.57
2024-01-09T01:30:28.737Z,83.31
2024-01-09T01:31:28.690Z,84.47
2024-01-09T01:32:28.866Z,84.05
2024-01-09T01:33:28.774Z,83.52
2024-01-09T01:34:28.723Z,83.20
2024-01-09T01:35:28.707Z,83.20
2024-01-09T01:36:28.662Z,82.67
2024-01-09T01:37:28.631Z,83.52
2024-01-09T01:38:28.661Z,83.31
2024-01-09T01:39:28.598Z,83.62
2024-01-09T01:40:28.610Z,82.99
2024-01-09T01:41:28.693Z,82.99
2024-01-09T01:42:28.581Z,82.78
2024-01-09T01:43:28.545Z,82.99
2024-01-09T01:44:28.599Z,82.89
2024-01-09T01:45:28.527Z,83.62
2024-01-09T01:46:28.524Z,83.41
2024-01-09T01:47:28.698Z,84.12
2024-01-09T01:48:28.705Z,84.05
2024-01-09T01:49:28.593Z,83.94
2024-01-09T01:50:28.500Z,83.62
2024-01-09T01:51:28.468Z,82.99
2024-01-09T01:52:28.497Z,82.99
2024-01-09T01:53:28.479Z,83.41
2024-01-09T01:54:28.469Z,83.66
2024-01-09T01:55:28.443Z,84.26
2024-01-09T01:56:38.685Z,84.58
2024-01-09T01:57:28.409Z,84.30
2024-01-09T01:58:28.391Z,83.45
2024-01-09T01:59:28.483Z,84.19
2024-01-09T02:00:28.456Z,83.98
2024-01-09T02:01:28.394Z,84.41
2024-01-09T02:02:28.416Z,84.47
2024-01-09T02:03:28.375Z,83.98
2024-01-09T02:04:28.334Z,84.93
2024-01-09T02:05:28.416Z,85.89
2024-01-09T02:06:28.424Z,85.78
2024-01-09T02:07:28.317Z,85.04
2024-01-09T02:08:28.297Z,84.89
2024-01-09T02:09:28.293Z,85.14
2024-01-09T02:10:28.253Z,85.00
2024-01-09T02:11:28.341Z,84.26
2024-01-09T02:12:29.097Z,84.36
2024-01-09T02:13:28.262Z,84.36
2024-01-09T02:14:28.261Z,84.26
2024-01-09T02:15:28.219Z,83.77
2024-01-09T02:16:28.209Z,83.84
2024-01-09T02:17:32.070Z,83.73
2024-01-09T02:18:28.675Z,84.72
2024-01-09T02:19:29.143Z,85.00
2024-01-09T02:20:29.085Z,84.83
2024-01-09T02:21:28.185Z,83.98
2024-01-09T02:22:28.597Z,84.30
2024-01-09T02:23:28.266Z,84.30
2024-01-09T02:24:29.834Z,84.93
2024-01-09T02:25:29.093Z,84.72
2024-01-09T02:26:40.689Z,85.25
2024-01-09T02:27:29.202Z,86.21
2024-01-09T02:28:28.238Z,85.04
2024-01-09T02:29:28.112Z,84.61
2024-01-09T02:30:28.078Z,85.61
2024-01-09T02:31:28.048Z,85.29
2024-01-09T02:32:28.106Z,85.57
2024-01-09T02:33:28.172Z,85.78
2024-01-09T02:34:28.126Z,84.72
2024-01-09T02:35:28.054Z,85.04
2024-01-09T02:36:28.043Z,84.76
2024-01-09T02:37:27.968Z,84.76
2024-01-09T02:38:28.023Z,85.50
2024-01-09T02:39:27.957Z,85.39
2024-01-09T02:40:27.997Z,85.29
2024-01-09T02:41:28.000Z,85.82
2024-01-09T02:42:27.966Z,86.03
2024-01-09T02:43:27.910Z,86.24
2024-01-09T02:44:27.945Z,85.82
2024-01-09T02:45:27.911Z,85.61
2024-01-09T02:46:27.882Z,85.71
2024-01-09T02:47:27.974Z,85.71
2024-01-09T02:48:27.996Z,86.03
2024-01-09T02:49:27.858Z,85.82
2024-01-09T02:50:27.847Z,85.96
2024-01-09T02:51:27.866Z,86.14
2024-01-09T02:52:27.826Z,85.39
2024-01-09T02:53:27.860Z,85.82
2024-01-09T02:54:27.822Z,86.66
2024-01-09T02:55:27.782Z,86.39
2024-01-09T02:56:27.798Z,85.54
2024-01-09T02:57:27.775Z,85.96
2024-01-09T02:58:27.760Z,86.07
2024-01-09T02:59:27.824Z,86.92
2024-01-09T03:00:27.724Z,88.09
2024-01-09T03:01:27.865Z,87.24
2024-01-09T03:02:27.841Z,86.71
2024-01-09T03:03:27.838Z,87.13
2024-01-09T03:04:27.699Z,86.18
2024-01-09T03:05:27.794Z,86.28
2024-01-09T03:06:27.986Z,85.61
2024-01-09T03:07:27.806Z,86.49
2024-01-09T03:08:28.225Z,86.35
2024-01-09T03:09:27.653Z,87.55
2024-01-09T03:10:27.707Z,86.99
2024-01-09T03:11:27.641Z,85.82
2024-01-09T03:12:27.612Z,86.28
2024-01-09T03:13:27.605Z,87.41
2024-01-09T03:14:27.604Z,87.62
2024-01-09T03:15:27.628Z,87.94
2024-01-09T03:16:27.564Z,87.30
2024-01-09T03:17:27.675Z,86.56
2024-01-09T03:18:27.761Z,85.64
2024-01-09T03:19:27.597Z,86.07
2024-01-09T03:20:27.547Z,87.45
2024-01-09T03:21:27.540Z,87.24
2024-01-09T03:22:27.527Z,86.92
2024-01-09T03:23:27.541Z,87.13
2024-01-09T03:24:27.470Z,86.60
2024-01-09T03:25:27.481Z,87.24
2024-01-09T03:26:27.536Z,86.71
2024-01-09T03:27:27.456Z,87.02
2024-01-09T03:28:27.483Z,87.49
2024-01-09T03:29:27.447Z,86.85
2024-01-09T03:30:27.424Z,87.49
2024-01-09T03:31:27.438Z,87.27
2024-01-09T03:32:27.457Z,87.06
2024-01-09T03:33:27.658Z,87.59
2024-01-09T03:34:27.416Z,87.49
2024-01-09T03:35:27.366Z,86.85
2024-01-09T03:36:27.367Z,87.59
2024-01-09T03:37:27.373Z,86.96
2024-01-09T03:38:27.356Z,86.96
2024-01-09T03:39:27.370Z,86.96
2024-01-09T03:40:27.313Z,87.49
2024-01-09T03:41:27.317Z,87.70
2024-01-09T03:42:27.276Z,87.06
2024-01-09T03:43:27.301Z,86.96
2024-01-09T03:44:27.332Z,86.96
2024-01-09T03:45:27.279Z,87.06
2024-01-09T03:46:27.252Z,87.17
2024-01-09T03:47:27.252Z,87.49
2024-01-09T03:48:27.229Z,88.02
2024-01-09T03:49:27.240Z,87.59
2024-01-09T03:50:27.264Z,88.23
2024-01-09T03:51:27.235Z,88.12
2024-01-09T03:52:27.184Z,88.34
2024-01-09T03:53:27.197Z,88.97
2024-01-09T03:54:27.163Z,88.17
2024-01-09T03:55:27.161Z,87.84
2024-01-09T03:56:27.168Z,88.12
2024-01-09T03:57:27.160Z,87.95
2024-01-09T03:58:27.120Z,89.33
2024-01-09T03:59:27.125Z,89.01
2024-01-09T04:00:27.150Z,89.22
2024-01-09T04:01:27.092Z,88.80
2024-01-09T04:02:27.067Z,89.01
2024-01-09T04:03:27.104Z,89.22
2024-01-09T04:04:29.062Z,88.48
2024-01-09T04:05:27.108Z,89.22
2024-01-09T04:06:27.100Z,89.01
2024-01-09T04:07:27.040Z,89.01
2024-01-09T04:08:27.059Z,88.90
2024-01-09T04:09:27.024Z,89.33
2024-01-09T04:10:27.033Z,89.12
2024-01-09T04:11:26.980Z,89.08
2024-01-09T04:12:26.957Z,88.97
2024-01-09T04:13:26.957Z,88.97
2024-01-09T04:14:26.981Z,88.59
2024-01-09T04:15:26.992Z,89.22
2024-01-09T04:16:26.976Z,88.06
2024-01-09T04:17:27.015Z,87.95
2024-01-09T04:18:27.020Z,88.17
2024-01-09T04:19:26.931Z,88.27
2024-01-09T04:20:26.938Z,88.97
2024-01-09T04:21:26.900Z,89.40
2024-01-09T04:22:26.906Z,88.97
2024-01-09T04:23:26.858Z,88.76
2024-01-09T04:24:26.830Z,88.02
2024-01-09T04:25:26.818Z,89.29
2024-01-09T04:26:26.891Z,89.01
2024-01-09T04:27:26.838Z,89.29
2024-01-09T04:28:26.800Z,88.70
2024-01-09T04:29:26.820Z,88.06
2024-01-09T04:30:26.792Z,87.95
2024-01-09T04:31:26.756Z,87.95
2024-01-09T04:32:26.812Z,87.21
2024-01-09T04:33:26.966Z,87.57
2024-01-09T04:34:26.780Z,87.35
2024-01-09T04:35:26.749Z,87.46
2024-01-09T04:36:26.707Z,87.42
2024-01-09T04:37:26.686Z,88.06
2024-01-09T04:38:26.724Z,89.33
2024-01-09T04:39:26.709Z,89.33
2024-01-09T04:40:26.679Z,87.84
2024-01-09T04:41:26.680Z,87.74
2024-01-09T04:42:26.646Z,86.89
2024-01-09T04:43:26.658Z,87.42
2024-01-09T04:44:26.674Z,86.64
2024-01-09T04:45:26.699Z,86.74
2024-01-09T04:46:26.614Z,85.72
2024-01-09T04:47:26.642Z,86.00
2024-01-09T04:48:26.828Z,85.69
2024-01-09T04:49:26.576Z,85.69
2024-01-09T04:50:26.610Z,86.46
2024-01-09T04:51:26.600Z,85.58
2024-01-09T04:52:26.523Z,86.11
2024-01-09T04:53:26.543Z,86.64
2024-01-09T04:54:26.520Z,87.59
2024-01-09T04:55:26.508Z,85.89
2024-01-09T04:56:26.525Z,86.43
2024-01-09T04:57:26.521Z,85.89
2024-01-09T04:58:26.462Z,85.69
2024-01-09T04:59:26.764Z,86.21
2024-01-09T05:00:26.451Z,87.52
2024-01-09T05:01:26.437Z,87.38
2024-01-09T05:02:26.484Z,86.74
2024-01-09T05:03:26.484Z,86.96
2024-01-09T05:04:26.410Z,86.96
2024-01-09T05:05:26.585Z,87.52
2024-01-09T05:06:26.494Z,86.57
2024-01-09T05:07:26.383Z,87.10
2024-01-09T05:08:26.492Z,87.06
2024-01-09T05:09:26.362Z,87.63
2024-01-09T05:10:26.352Z,88.34
2024-01-09T05:11:26.408Z,88.27
2024-01-09T05:12:26.329Z,87.49
2024-01-09T05:13:26.304Z,86.99
2024-01-09T05:14:26.308Z,87.32
2024-01-09T05:15:26.282Z,86.79
2024-01-09T05:16:26.306Z,87.74
2024-01-09T05:17:26.367Z,87.10
2024-01-09T05:18:26.450Z,86.99
2024-01-09T05:19:26.463Z,86.89
2024-01-09T05:20:26.299Z,85.83
2024-01-09T05:21:26.224Z,86.15
2024-01-09T05:22:26.258Z,86.15
2024-01-09T05:23:26.286Z,87.95
2024-01-09T05:24:26.233Z,87.74
2024-01-09T05:25:26.192Z,87.32
2024-01-09T05:26:26.195Z,87.95
2024-01-09T05:27:26.147Z,87.46
2024-01-09T05:28:26.158Z,86.99
2024-01-09T05:29:26.211Z,86.93
2024-01-09T05:30:26.187Z,87.52
2024-01-09T05:31:27.306Z,86.15
2024-01-09T05:32:26.282Z,87.14
2024-01-09T05:33:26.282Z,86.57
2024-01-09T05:34:26.104Z,86.15
2024-01-09T05:35:26.084Z,86.25
2024-01-09T05:36:26.232Z,86.57
2024-01-09T05:37:26.071Z,86.57
2024-01-09T05:38:26.129Z,85.83
2024-01-09T05:39:26.032Z,85.72
2024-01-09T05:40:26.064Z,86.43
2024-01-09T05:41:26.032Z,86.64
2024-01-09T05:42:26.000Z,86.99
2024-01-09T05:43:26.007Z,85.94
2024-01-09T05:44:26.026Z,85.76
2024-01-09T05:45:25.956Z,86.46
2024-01-09T05:46:25.974Z,87.04
2024-01-09T05:47:26.031Z,87.25
2024-01-09T05:48:26.197Z,86.04
2024-01-09T05:49:26.001Z,86.40
2024-01-09T05:50:25.948Z,86.25
2024-01-09T05:51:25.908Z,86.19
2024-01-09T05:52:25.907Z,85.02
2024-01-09T05:53:25.898Z,85.19
2024-01-09T05:54:25.894Z,85.94
2024-01-09T05:55:25.854Z,85.76
2024-01-09T05:56:25.886Z,85.66
2024-01-09T05:57:25.830Z,85.23
2024-01-09T05:58:25.863Z,85.02
2024-01-09T05:59:25.908Z,85.55
2024-01-09T06:00:25.840Z,85.76
2024-01-09T06:01:25.841Z,86.19
2024-01-09T06:02:25.842Z,86.51
2024-01-09T06:03:25.809Z,87.67
2024-01-09T06:04:25.773Z,85.44
2024-01-09T06:05:25.869Z,85.87
2024-01-09T06:06:25.886Z,85.76
2024-01-09T06:07:25.755Z,85.97
2024-01-09T06:08:25.847Z,85.76
2024-01-09T06:09:25.710Z,85.23
2024-01-09T06:10:25.708Z,85.76
2024-01-09T06:11:25.751Z,86.51
2024-01-09T06:12:25.700Z,86.19
2024-01-09T06:13:25.677Z,86.08
2024-01-09T06:14:25.727Z,85.97
2024-01-09T06:15:25.644Z,85.66
2024-01-09T06:16:25.640Z,85.66
2024-01-09T06:17:25.739Z,86.19
2024-01-09T06:18:25.842Z,86.08
2024-01-09T06:19:26.754Z,85.76
2024-01-09T06:20:25.643Z,84.91
2024-01-09T06:21:25.604Z,85.55
2024-01-09T06:22:25.571Z,85.66
2024-01-09T06:23:25.614Z,86.19
2024-01-09T06:24:25.574Z,85.80
2024-01-09T06:25:25.581Z,86.08
2024-01-09T06:26:25.536Z,85.80
2024-01-09T06:27:25.518Z,85.38
2024-01-09T06:28:25.512Z,85.38
2024-01-09T06:29:25.541Z,86.12
2024-01-09T06:30:25.572Z,85.91
2024-01-09T06:31:25.491Z,86.19
2024-01-09T06:32:25.640Z,86.61
2024-01-09T06:33:25.616Z,86.19
2024-01-09T06:34:25.488Z,86.08
2024-01-09T06:35:25.459Z,85.76
2024-01-09T06:36:25.493Z,86.51
2024-01-09T06:37:25.405Z,85.66
2024-01-09T06:38:25.442Z,85.66
2024-01-09T06:39:25.406Z,85.80
2024-01-09T06:40:25.586Z,85.76
2024-01-09T06:41:25.416Z,85.76
2024-01-09T06:42:25.356Z,85.23
2024-01-09T06:43:25.358Z,85.02
2024-01-09T06:44:25.392Z,85.66
2024-01-09T06:45:25.334Z,86.40
2024-01-09T06:46:25.319Z,85.97
2024-01-09T06:47:25.386Z,86.40
2024-01-09T06:48:25.627Z,86.40
2024-01-09T06:49:25.421Z,85.55
2024-01-09T06:50:33.352Z,85.97
2024-01-09T06:51:26.352Z,84.84
2024-01-09T06:52:25.314Z,85.27
2024-01-09T06:53:25.338Z,86.22
2024-01-09T06:54:25.290Z,85.91
2024-01-09T06:55:25.311Z,85.80
2024-01-09T06:57:25.258Z,86.22
2024-01-09T06:58:25.277Z,85.91
2024-01-09T06:59:25.309Z,86.22
2024-01-09T07:00:25.209Z,85.69
2024-01-09T07:01:25.264Z,86.01
2024-01-09T07:02:25.251Z,85.69
2024-01-09T07:03:25.194Z,86.44
2024-01-09T07:04:25.296Z,86.12
2024-01-09T07:05:25.207Z,86.65
2024-01-09T07:06:25.220Z,86.47
2024-01-09T07:07:31.467Z,86.05
2024-01-09T07:08:26.132Z,86.26
2024-01-09T07:09:25.071Z,85.73
2024-01-09T07:10:25.065Z,85.80
2024-01-09T07:11:25.067Z,85.52
2024-01-09T07:12:25.051Z,85.48
2024-01-09T07:13:25.057Z,85.16
2024-01-09T07:14:25.104Z,86.05
2024-01-09T07:15:25.116Z,85.91
2024-01-09T07:16:25.006Z,85.73
2024-01-09T07:17:25.036Z,85.80
2024-01-09T07:18:25.106Z,85.69
2024-01-09T07:19:25.053Z,85.27
2024-01-09T07:20:25.215Z,84.95
2024-01-09T07:21:24.964Z,84.74
2024-01-09T07:22:24.938Z,84.84
2024-01-09T07:23:24.964Z,85.13
2024-01-09T07:24:24.903Z,85.27
2024-01-09T07:25:24.897Z,85.38
2024-01-09T07:26:24.961Z,84.81
2024-01-09T07:27:24.878Z,85.02
2024-01-09T07:28:24.914Z,84.74
2024-01-09T07:29:24.862Z,84.84
2024-01-09T07:30:24.893Z,84.95
2024-01-09T07:31:24.828Z,85.06
2024-01-09T07:32:25.092Z,84.53
2024-01-09T07:33:25.012Z,84.59
2024-01-09T07:34:24.942Z,84.59
2024-01-09T07:35:24.811Z,84.59
2024-01-09T07:36:24.774Z,84.28
2024-01-09T07:37:24.775Z,84.28
2024-01-09T07:38:24.793Z,84.28
2024-01-09T07:39:24.764Z,84.20
2024-01-09T07:40:24.758Z,85.06
2024-01-09T07:41:24.745Z,85.38
2024-01-09T07:42:24.718Z,85.59
2024-01-09T07:43:24.735Z,84.48
2024-01-09T07:44:24.766Z,84.70
2024-01-09T07:45:24.704Z,84.59
2024-01-09T07:46:24.697Z,84.06
2024-01-09T07:47:24.771Z,83.78
2024-01-09T07:48:25.032Z,84.17
2024-01-09T07:49:24.685Z,84.00
2024-01-09T07:50:24.683Z,84.06
2024-01-09T07:51:24.636Z,84.17
2024-01-09T07:52:24.612Z,84.38
2024-01-09T07:53:24.629Z,84.48
2024-01-09T07:54:24.608Z,83.75
2024-01-09T07:55:24.592Z,83.85
2024-01-09T07:56:24.631Z,83.81
2024-01-09T07:57:28.438Z,83.22
2024-01-09T07:58:25.564Z,83.95
2024-01-09T07:59:24.558Z,83.64
2024-01-09T08:00:24.555Z,83.85
2024-01-09T08:01:24.563Z,83.81
2024-01-09T08:02:24.550Z,84.17
2024-01-09T08:03:24.544Z,82.86
2024-01-09T08:04:24.483Z,82.47
2024-01-09T08:05:24.505Z,83.22
2024-01-09T08:06:24.749Z,83.11
2024-01-09T08:07:24.455Z,83.43
2024-01-09T08:08:24.496Z,83.92
2024-01-09T08:09:24.452Z,84.17
2024-01-09T08:10:24.425Z,83.81
2024-01-09T08:11:25.113Z,83.75
2024-01-09T08:12:24.395Z,83.39
2024-01-09T08:13:24.386Z,83.85
2024-01-09T08:14:24.447Z,83.81
2024-01-09T08:15:24.355Z,84.13
2024-01-09T08:16:24.390Z,84.34
2024-01-09T08:17:24.378Z,83.71
2024-01-09T08:18:24.494Z,83.60
2024-01-09T08:19:24.384Z,83.07
2024-01-09T08:20:24.348Z,82.43
2024-01-09T08:21:24.336Z,82.43
2024-01-09T08:22:24.284Z,83.39
2024-01-09T08:23:24.310Z,83.88
2024-01-09T08:24:24.279Z,84.13
2024-01-09T08:25:24.262Z,82.71
2024-01-09T08:26:24.255Z,81.97
2024-01-09T08:27:24.275Z,81.80
2024-01-09T08:28:24.266Z,82.18
2024-01-09T08:29:24.259Z,82.43
2024-01-09T08:30:24.276Z,82.82
2024-01-09T08:31:24.200Z,82.08
2024-01-09T08:32:24.427Z,82.08
2024-01-09T08:33:26.725Z,81.65
2024-01-09T08:34:24.280Z,81.12
2024-01-09T08:35:24.236Z,81.45
2024-01-09T08:36:24.154Z,82.08
2024-01-09T08:37:24.137Z,82.29
2024-01-09T08:38:24.145Z,82.82
2024-01-09T08:39:24.136Z,82.18
2024-01-09T08:40:24.107Z,83.25
2024-01-09T08:41:24.128Z,83.00
2024-01-09T08:42:24.071Z,83.46
2024-01-09T08:43:25.083Z,83.84
2024-01-09T08:44:24.101Z,82.46
2024-01-09T08:45:24.056Z,82.36
2024-01-09T08:46:24.028Z,82.57
2024-01-09T08:47:24.070Z,81.62
2024-01-09T08:48:24.394Z,81.62
2024-01-09T08:49:24.104Z,81.51
2024-01-09T08:50:24.041Z,82.15
2024-01-09T08:51:24.983Z,81.51
2024-01-09T08:52:23.984Z,81.09
2024-01-09T08:53:24.006Z,80.56
2024-01-09T08:54:23.975Z,80.56
2024-01-09T08:55:23.942Z,80.66
2024-01-09T08:56:24.007Z,80.77
2024-01-09T08:57:23.938Z,81.20
2024-01-09T08:58:23.930Z,81.05
2024-01-09T08:59:23.932Z,80.21
2024-01-09T09:00:23.884Z,80.31
2024-01-09T09:01:24.029Z,80.41
2024-01-09T09:02:23.954Z,79.57
2024-01-09T09:03:23.909Z,79.25
2024-01-09T09:04:23.861Z,80.52
2024-01-09T09:05:24.023Z,80.52
2024-01-09T09:06:23.908Z,80.52
2024-01-09T09:07:23.821Z,81.79
2024-01-09T09:08:23.875Z,80.41
2024-01-09T09:09:23.780Z,79.88
2024-01-09T09:10:23.775Z,80.63
2024-01-09T09:11:23.844Z,80.59
2024-01-09T09:12:23.768Z,81.12
2024-01-09T09:13:23.770Z,79.11
2024-01-09T09:14:23.779Z,78.51
2024-01-09T09:15:23.779Z,78.51
2024-01-09T09:16:23.718Z,78.47
2024-01-09T09:17:23.782Z,80.49
2024-01-09T09:18:23.871Z,80.49
2024-01-09T09:19:23.792Z,78.58
2024-01-09T09:20:23.704Z,78.47
2024-01-09T09:21:23.678Z,78.47
2024-01-09T09:22:23.673Z,78.37
2024-01-09T09:23:23.671Z,78.16
2024-01-09T09:24:23.647Z,78.69
2024-01-09T09:25:23.652Z,78.79
2024-01-09T09:26:23.738Z,79.32
2024-01-09T09:27:23.593Z,79.50
2024-01-09T09:28:23.638Z,80.38
2024-01-09T09:29:32.299Z,80.27
2024-01-09T09:30:24.669Z,80.38
2024-01-09T09:31:23.573Z,80.34
2024-01-09T09:32:23.566Z,78.86
2024-01-09T09:33:23.736Z,79.39
2024-01-09T09:34:23.545Z,80.13
2024-01-09T09:35:23.571Z,78.61
2024-01-09T09:36:23.540Z,78.19
2024-01-09T09:37:23.501Z,78.40
2024-01-09T09:38:23.514Z,78.72
2024-01-09T09:39:23.539Z,78.61
2024-01-09T09:40:23.472Z,78.12
2024-01-09T09:41:23.535Z,76.81
2024-01-09T09:42:23.448Z,77.48
2024-01-09T09:43:23.431Z,76.75
2024-01-09T09:44:23.491Z,77.56
2024-01-09T09:45:23.412Z,77.70
2024-01-09T09:46:23.421Z,78.55
2024-01-09T09:47:23.641Z,78.02
2024-01-09T09:48:23.525Z,77.76
2024-01-09T09:49:23.408Z,76.92
2024-01-09T09:50:23.364Z,77.13
2024-01-09T09:51:25.637Z,76.89
2024-01-09T09:52:23.343Z,78.19
2024-01-09T09:53:23.416Z,78.19
2024-01-09T09:54:23.374Z,78.16
2024-01-09T09:55:23.353Z,77.73
2024-01-09T09:56:23.546Z,76.67
2024-01-09T09:57:23.311Z,77.20
2024-01-09T09:58:23.264Z,77.73
2024-01-09T09:59:23.290Z,76.78
2024-01-09T10:00:23.263Z,76.78
2024-01-09T10:01:23.278Z,76.99
2024-01-09T10:02:25.766Z,76.46
2024-01-09T10:03:23.335Z,76.67
2024-01-09T10:04:23.231Z,76.57
2024-01-09T10:05:23.314Z,76.46
2024-01-09T10:06:23.286Z,75.79
2024-01-09T10:07:23.178Z,76.04
2024-01-09T10:08:23.204Z,76.64
2024-01-09T10:09:23.208Z,75.90
2024-01-09T10:10:23.145Z,75.59
2024-01-09T10:11:23.164Z,75.79
2024-01-09T10:12:23.107Z,75.72
2024-01-09T10:13:23.099Z,77.70
2024-01-09T10:14:23.121Z,75.69
2024-01-09T10:15:23.127Z,76.11
2024-01-09T10:16:23.084Z,76.75
2024-01-09T10:17:23.099Z,77.70
2024-01-09T10:18:23.279Z,77.91
2024-01-09T10:19:23.089Z,75.69
2024-01-09T10:20:26.223Z,76.11
2024-01-09T10:21:23.026Z,75.27
2024-01-09T10:22:23.022Z,74.95
2024-01-09T10:23:23.055Z,75.69
2024-01-09T10:24:23.006Z,76.18
2024-01-09T10:25:22.987Z,75.23
2024-01-09T10:26:23.105Z,75.59
2024-01-09T10:27:22.958Z,75.02
2024-01-09T10:28:22.972Z,74.00
2024-01-09T10:29:23.027Z,74.32
2024-01-09T10:30:23.055Z,74.84
2024-01-09T10:31:22.910Z,74.42
2024-01-09T10:32:22.994Z,75.02
2024-01-09T10:33:23.086Z,75.13
2024-01-09T10:34:22.966Z,74.70
2024-01-09T10:35:22.904Z,74.91
2024-01-09T10:36:22.863Z,74.07
2024-01-09T10:37:22.849Z,73.96
2024-01-09T10:38:22.908Z,74.07
2024-01-09T10:39:23.158Z,73.86
2024-01-09T10:40:22.847Z,73.86
2024-01-09T10:41:22.858Z,73.82
2024-01-09T10:42:22.781Z,73.75
2024-01-09T10:43:22.775Z,73.40
2024-01-09T10:44:22.832Z,73.82
2024-01-09T10:45:22.795Z,74.04
2024-01-09T10:46:22.776Z,75.13
2024-01-09T10:47:22.856Z,74.57
2024-01-09T10:48:22.878Z,74.35
2024-01-09T10:49:23.703Z,75.20
2024-01-09T10:50:22.901Z,74.14
2024-01-09T10:51:22.703Z,73.40
2024-01-09T10:52:22.709Z,74.14
2024-01-09T10:53:22.694Z,73.61
2024-01-09T10:54:22.667Z,74.14
2024-01-09T10:55:22.652Z,73.40
2024-01-09T10:56:22.701Z,73.61
2024-01-09T10:57:22.640Z,73.82
2024-01-09T10:58:22.648Z,73.61
2024-01-09T10:59:22.620Z,74.53
2024-01-09T11:00:22.602Z,75.37
2024-01-09T11:01:22.708Z,75.48
2024-01-09T11:02:22.670Z,75.80
2024-01-09T11:03:22.648Z,76.64
2024-01-09T11:04:22.552Z,76.08
2024-01-09T11:05:22.609Z,76.54
2024-01-09T11:06:22.592Z,76.61
2024-01-09T11:07:22.526Z,76.29
2024-01-09T11:08:22.546Z,74.71
2024-01-09T11:09:22.537Z,74.50
2024-01-09T11:10:22.485Z,74.74
2024-01-09T11:11:22.525Z,74.53
2024-01-09T11:12:22.475Z,74.43
2024-01-09T11:13:22.672Z,74.63
2024-01-09T11:14:22.494Z,75.48
2024-01-09T11:15:22.484Z,75.16
2024-01-09T11:16:22.415Z,74.74
2024-01-09T11:17:22.615Z,75.48
2024-01-09T11:18:22.515Z,74.85
2024-01-09T11:19:22.428Z,75.16
2024-01-09T11:20:22.468Z,74.81
2024-01-09T11:21:22.398Z,74.07
2024-01-09T11:22:22.356Z,73.76
2024-01-09T11:23:22.408Z,73.44
2024-01-09T11:24:22.364Z,73.44
2024-01-09T11:25:22.345Z,75.84
2024-01-09T11:26:22.335Z,74.15
2024-01-09T11:27:22.328Z,74.18
2024-01-09T11:28:22.348Z,73.86
2024-01-09T11:29:22.328Z,73.94
2024-01-09T11:30:22.384Z,74.81
2024-01-09T11:31:22.645Z,75.42
2024-01-09T11:32:22.335Z,74.68
2024-01-09T11:33:22.449Z,74.04
2024-01-09T11:34:22.319Z,74.57
2024-01-09T11:35:22.278Z,74.46
2024-01-09T11:36:22.256Z,74.78
2024-01-09T11:37:22.213Z,75.84
2024-01-09T11:38:22.303Z,75.10
2024-01-09T11:39:22.168Z,74.88
2024-01-09T11:40:22.157Z,75.20
2024-01-09T11:41:22.262Z,75.31
2024-01-09T11:42:22.149Z,75.20
2024-01-09T11:43:22.142Z,74.99
2024-01-09T11:44:22.227Z,75.62
2024-01-09T11:45:22.106Z,78.05
2024-01-09T11:46:22.107Z,77.94
2024-01-09T11:47:22.175Z,75.10
2024-01-09T11:48:22.286Z,75.94
2024-01-09T11:49:22.239Z,74.88
2024-01-09T11:50:22.176Z,73.69
2024-01-09T11:51:22.074Z,75.31
2024-01-09T11:52:22.031Z,73.83
2024-01-09T11:53:22.058Z,74.04
2024-01-09T11:54:22.021Z,74.78
2024-01-09T11:55:22.011Z,74.26
2024-01-09T11:56:22.042Z,74.68
2024-01-09T11:57:30.676Z,74.99
2024-01-09T11:58:21.956Z,75.48
2024-01-09T11:59:22.031Z,74.54
2024-01-09T12:00:22.026Z,75.31
2024-01-09T12:01:22.052Z,75.42
2024-01-09T12:02:21.990Z,75.84
2024-01-09T12:03:21.928Z,75.59
2024-01-09T12:04:21.940Z,75.27
2024-01-09T12:05:21.931Z,74.01
2024-01-09T12:06:21.939Z,74.54
2024-01-09T12:07:21.956Z,75.06
2024-01-09T12:08:21.930Z,74.54
2024-01-09T12:09:21.855Z,75.59
2024-01-09T12:10:30.527Z,76.54
2024-01-09T12:11:22.948Z,75.48
2024-01-09T12:12:21.835Z,74.96
2024-01-09T12:13:21.830Z,75.34
2024-01-09T12:14:21.827Z,75.03
2024-01-09T12:15:21.803Z,73.55
2024-01-09T12:16:21.810Z,73.87
2024-01-09T12:17:21.851Z,73.45
2024-01-09T12:18:21.799Z,73.87
2024-01-09T12:19:21.874Z,73.66
2024-01-09T12:20:21.755Z,73.13
2024-01-09T12:21:21.710Z,73.73
2024-01-09T12:22:21.733Z,73.83
2024-01-09T12:23:21.713Z,73.94
2024-01-09T12:24:24.397Z,73.73
2024-01-09T12:25:21.674Z,72.57
2024-01-09T12:26:21.715Z,71.83
2024-01-09T12:27:21.652Z,73.31
2024-01-09T12:28:21.650Z,74.47
2024-01-09T12:29:21.666Z,73.83
2024-01-09T12:30:21.780Z,74.65
2024-01-09T12:31:21.694Z,73.63
2024-01-09T12:32:21.630Z,73.07
2024-01-09T12:33:21.834Z,73.41
2024-01-09T12:34:21.798Z,73.17
2024-01-09T12:35:21.611Z,73.10
2024-01-09T12:36:21.549Z,72.67
2024-01-09T12:37:21.559Z,72.57
2024-01-09T12:38:21.554Z,73.21
2024-01-09T12:39:21.614Z,71.48
2024-01-09T12:40:21.512Z,72.44
2024-01-09T12:41:21.608Z,73.07
2024-01-09T12:42:21.512Z,72.96
2024-01-09T12:43:21.469Z,71.28
2024-01-09T12:44:21.560Z,70.75
2024-01-09T12:45:21.453Z,71.38
2024-01-09T12:46:21.483Z,71.38
2024-01-09T12:47:21.471Z,71.48
2024-01-09T12:48:21.544Z,70.43
2024-01-09T12:49:21.517Z,72.54
2024-01-09T12:50:21.474Z,72.02
2024-01-09T12:51:21.463Z,71.83
2024-01-09T12:52:21.395Z,71.38
2024-01-09T12:53:21.456Z,71.38